createdAt,value
2018-05-01T00:01:33.731Z,75.95
2018-05-01T00:04:01.543Z,76.87
2018-05-01T00:06:29.408Z,75.40
2018-05-01T00:08:57.169Z,76.28
2018-05-01T00:11:24.961Z,75.62
2018-05-01T00:13:52.793Z,76.12
2018-05-01T00:16:21.366Z,76.90
2018-05-01T00:18:49.920Z,77.80
2018-05-01T00:21:17.708Z,79.22
2018-05-01T00:23:46.314Z,76.00
2018-05-01T00:26:14.133Z,77.95
2018-05-01T00:28:41.905Z,77.57
2018-05-01T00:31:09.794Z,79.43
2018-05-01T00:33:38.349Z,75.82
2018-05-01T00:36:06.187Z,78.25
2018-05-01T00:38:34.084Z,78.37
2018-05-01T00:41:01.984Z,78.30
2018-05-01T00:43:29.781Z,74.05
2018-05-01T00:45:57.621Z,78.20
2018-05-01T00:48:25.398Z,76.90
2018-05-01T00:50:53.229Z,77.35
2018-05-01T00:53:21.785Z,77.47
2018-05-01T00:55:49.633Z,79.57
2018-05-01T00:58:17.486Z,80.40
2018-05-01T01:00:45.290Z,78.87
2018-05-01T01:03:13.091Z,79.87
2018-05-01T01:05:40.870Z,75.90
2018-05-01T01:08:08.716Z,79.12
2018-05-01T01:10:37.348Z,77.60
2018-05-01T01:13:05.210Z,78.65
2018-05-01T01:15:33.011Z,76.82
2018-05-01T01:18:00.865Z,79.62
2018-05-01T01:20:28.641Z,79.18
2018-05-01T01:22:56.435Z,78.60
2018-05-01T01:25:24.228Z,79.87
2018-05-01T01:27:52.018Z,78.45
2018-05-01T01:30:19.902Z,78.80
2018-05-01T01:32:53.666Z,80.20
2018-05-01T01:35:21.043Z,79.03
2018-05-01T01:37:48.341Z,78.20
2018-05-01T01:40:15.646Z,80.18
2018-05-01T01:42:42.944Z,78.12
2018-05-01T01:45:10.270Z,79.35
2018-05-01T01:47:38.366Z,78.45
2018-05-01T01:50:06.428Z,79.03
2018-05-01T01:52:34.584Z,76.80
2018-05-01T01:55:01.858Z,79.05
2018-05-01T01:57:29.280Z,78.43
2018-05-01T01:59:56.539Z,79.03
2018-05-01T02:02:23.861Z,77.37
2018-05-01T02:04:51.927Z,78.05
2018-05-01T02:07:19.207Z,80.90
2018-05-01T02:09:46.480Z,78.28
2018-05-01T02:12:14.522Z,79.95
2018-05-01T02:14:41.881Z,76.78
2018-05-01T02:17:09.238Z,81.45
2018-05-01T02:19:36.691Z,77.80
2018-05-01T02:22:04.041Z,78.15
2018-05-01T02:24:31.401Z,77.32
2018-05-01T02:26:58.712Z,78.82
2018-05-01T02:29:26.003Z,78.65
2018-05-01T02:31:53.370Z,78.05
2018-05-01T02:34:20.816Z,79.72
2018-05-01T02:36:48.100Z,77.70
2018-05-01T02:39:15.434Z,79.72
2018-05-01T02:41:42.737Z,77.10
2018-05-01T02:44:10.053Z,80.68
2018-05-01T02:46:38.203Z,76.40
2018-05-01T02:49:05.555Z,78.75
2018-05-01T02:51:33.016Z,77.22
2018-05-01T02:54:00.366Z,77.32
2018-05-01T02:56:27.651Z,78.57
2018-05-01T02:58:55.735Z,77.82
2018-05-01T03:01:23.007Z,77.57
2018-05-01T03:03:50.295Z,75.87
2018-05-01T03:06:17.564Z,77.68
2018-05-01T03:08:45.591Z,73.18
2018-05-01T03:11:12.905Z,78.55
2018-05-01T03:13:41.039Z,74.65
2018-05-01T03:16:08.395Z,78.37
2018-05-01T03:18:35.748Z,76.87
2018-05-01T03:21:03.101Z,76.28
2018-05-01T03:23:30.455Z,74.15
2018-05-01T03:25:57.813Z,76.07
2018-05-01T03:28:25.163Z,76.72
2018-05-01T03:30:52.520Z,75.80
2018-05-01T03:33:19.871Z,78.87
2018-05-01T03:35:47.436Z,75.07
2018-05-01T03:38:14.786Z,78.60
2018-05-01T03:40:42.246Z,74.30
2018-05-01T03:43:09.595Z,77.20
2018-05-01T03:45:36.918Z,75.72
2018-05-01T03:48:04.259Z,75.93
2018-05-01T03:50:31.657Z,74.25
2018-05-01T03:52:58.982Z,75.70
2018-05-01T03:55:26.342Z,76.40
2018-05-01T03:57:53.641Z,75.87
2018-05-01T04:00:21.037Z,76.78
2018-05-01T04:02:48.325Z,75.82
2018-05-01T04:05:15.666Z,78.70
2018-05-01T04:07:42.996Z,75.70
2018-05-01T04:10:10.353Z,77.07
2018-05-01T04:12:37.712Z,77.57
2018-05-01T04:15:05.103Z,77.45
2018-05-01T04:17:32.453Z,76.68
2018-05-01T04:19:59.912Z,76.55
2018-05-01T04:22:27.232Z,74.78
2018-05-01T04:24:54.589Z,74.90
2018-05-01T04:27:21.917Z,78.45
2018-05-01T04:29:49.299Z,76.05
2018-05-01T04:32:16.765Z,79.45
2018-05-01T04:34:44.217Z,77.45
2018-05-01T04:37:11.668Z,81.35
2018-05-01T04:39:39.026Z,77.85
2018-05-01T04:42:06.383Z,82.37
2018-05-01T04:44:33.730Z,81.30
2018-05-01T04:47:01.088Z,81.45
2018-05-01T04:49:28.441Z,83.65
2018-05-01T04:51:55.897Z,87.82
2018-05-01T04:54:23.251Z,87.78
2018-05-01T04:56:50.708Z,92.88
2018-05-01T04:59:18.060Z,89.93
2018-05-01T05:01:45.417Z,96.53
2018-05-01T05:04:12.870Z,101.62
2018-05-01T05:06:40.329Z,94.65
2018-05-01T05:09:07.785Z,87.70
2018-05-01T05:11:35.241Z,83.90
2018-05-01T05:14:02.696Z,83.47
2018-05-01T05:16:30.050Z,80.93
2018-05-01T05:18:57.404Z,80.95
2018-05-01T05:21:29.557Z,84.10
2018-05-01T05:23:56.892Z,79.82
2018-05-01T05:26:24.279Z,81.15
2018-05-01T05:28:51.739Z,80.12
2018-05-01T05:31:19.166Z,80.47
2018-05-01T05:33:46.520Z,81.22
2018-05-01T05:36:13.905Z,82.32
2018-05-01T05:38:41.213Z,80.70
2018-05-01T05:41:08.817Z,82.90
2018-05-01T05:43:36.172Z,82.00
2018-05-01T05:46:03.574Z,81.45
2018-05-01T05:48:30.980Z,81.57
2018-05-01T05:50:58.334Z,81.87
2018-05-01T05:53:25.792Z,82.82
2018-05-01T05:55:54.282Z,86.10
2018-05-01T05:58:21.828Z,81.97
2018-05-01T06:00:49.283Z,81.72
2018-05-01T06:03:16.743Z,81.45
2018-05-01T06:05:44.097Z,79.78
2018-05-01T06:08:11.449Z,82.93
2018-05-01T06:10:51.642Z,82.28
2018-05-01T06:13:19.780Z,91.82
2018-05-01T06:15:47.131Z,83.68
2018-05-01T06:18:14.485Z,89.55
2018-05-01T06:20:41.838Z,83.57
2018-05-01T06:23:09.299Z,88.55
2018-05-01T06:25:36.613Z,82.20
2018-05-01T06:28:04.007Z,83.15
2018-05-01T06:30:31.458Z,82.75
2018-05-01T06:32:58.815Z,81.35
2018-05-01T06:35:26.273Z,83.12
2018-05-01T06:37:53.628Z,82.50
2018-05-01T06:40:20.982Z,82.82
2018-05-01T06:42:48.494Z,84.07
2018-05-01T06:45:15.891Z,84.85
2018-05-01T06:47:43.249Z,86.78
2018-05-01T06:50:10.706Z,85.65
2018-05-01T06:52:38.061Z,82.95
2018-05-01T06:55:05.410Z,82.60
2018-05-01T06:57:32.767Z,83.70
2018-05-01T07:00:00.224Z,83.62
2018-05-01T07:02:27.646Z,88.87
2018-05-01T07:04:55.036Z,82.00
2018-05-01T07:07:22.492Z,83.80
2018-05-01T07:09:49.954Z,84.10
2018-05-01T07:12:18.797Z,86.10
2018-05-01T07:14:46.191Z,82.88
2018-05-01T07:17:13.505Z,82.30
2018-05-01T07:19:40.899Z,81.53
2018-05-01T07:22:08.256Z,84.05
2018-05-01T07:24:35.607Z,81.68
2018-05-01T07:27:03.164Z,84.18
2018-05-01T07:29:30.621Z,81.55
2018-05-01T07:31:58.078Z,77.72
2018-05-01T07:34:25.431Z,77.72
2018-05-01T07:36:52.784Z,79.35
2018-05-01T07:39:20.143Z,82.35
2018-05-01T07:41:47.582Z,78.32
2018-05-01T07:44:14.949Z,78.87
2018-05-01T07:46:42.323Z,80.25
2018-05-01T07:49:09.724Z,83.07
2018-05-01T07:51:37.831Z,79.20
2018-05-01T07:54:05.289Z,85.95
2018-05-01T07:56:32.609Z,81.55
2018-05-01T07:58:59.995Z,88.62
2018-05-01T08:01:27.350Z,84.53
2018-05-01T08:03:54.635Z,86.18
2018-05-01T08:06:22.845Z,85.75
2018-05-01T08:08:50.378Z,84.40
2018-05-01T08:11:17.598Z,89.45
2018-05-01T08:13:45.043Z,88.65
2018-05-01T08:16:12.400Z,89.47
2018-05-01T08:18:39.839Z,90.35
2018-05-01T08:21:07.308Z,89.30
2018-05-01T08:23:34.666Z,85.05
2018-05-01T08:26:02.123Z,85.20
2018-05-01T08:28:29.482Z,81.15
2018-05-01T08:30:57.752Z,80.62
2018-05-01T08:33:25.208Z,82.55
2018-05-01T08:35:52.766Z,81.32
2018-05-01T08:38:20.125Z,83.43
2018-05-01T08:40:47.475Z,83.05
2018-05-01T08:43:14.934Z,81.93
2018-05-01T08:45:42.283Z,81.93
2018-05-01T08:48:09.641Z,82.35
2018-05-01T08:50:37.198Z,79.32
2018-05-01T08:53:04.555Z,81.60
2018-05-01T08:55:31.905Z,78.70
2018-05-01T08:57:59.260Z,79.95
2018-05-01T09:00:26.617Z,84.28
2018-05-01T09:02:53.972Z,78.65
2018-05-01T09:05:21.322Z,78.43
2018-05-01T09:07:48.679Z,79.18
2018-05-01T09:10:16.136Z,82.25
2018-05-01T09:12:43.488Z,75.05
2018-05-01T09:15:10.842Z,81.12
2018-05-01T09:17:39.212Z,80.18
2018-05-01T09:20:06.678Z,82.10
2018-05-01T09:22:34.029Z,79.43
2018-05-01T09:25:01.384Z,78.70
2018-05-01T09:27:28.740Z,77.12
2018-05-01T09:29:56.162Z,78.05
2018-05-01T09:32:23.548Z,80.12
2018-05-01T09:34:51.008Z,82.22
2018-05-01T09:37:18.461Z,80.35
2018-05-01T09:39:45.918Z,79.05
2018-05-01T09:42:13.272Z,80.53
2018-05-01T09:44:40.629Z,76.03
2018-05-01T09:47:07.985Z,78.07
2018-05-01T09:49:35.341Z,81.03
2018-05-01T09:52:02.795Z,80.97
2018-05-01T09:54:30.663Z,77.97
2018-05-01T09:56:58.627Z,78.25
2018-05-01T09:59:26.594Z,76.35
2018-05-01T10:01:54.461Z,75.90
2018-05-01T10:04:22.534Z,75.75
2018-05-01T10:06:51.937Z,77.47
2018-05-01T10:09:19.801Z,76.70
2018-05-01T10:11:47.668Z,76.37
2018-05-01T10:14:15.634Z,80.10
2018-05-01T10:16:43.504Z,76.12
2018-05-01T10:19:12.191Z,75.28
2018-05-01T10:21:40.056Z,75.50
2018-05-01T10:24:08.021Z,78.62
2018-05-01T10:26:35.890Z,74.00
2018-05-01T10:29:03.855Z,76.90
2018-05-01T10:31:31.721Z,72.37
2018-05-01T10:33:59.592Z,74.03
2018-05-01T10:36:27.557Z,77.07
2018-05-01T10:38:55.521Z,72.68
2018-05-01T10:41:23.392Z,75.62
2018-05-01T10:43:51.256Z,75.57
2018-05-01T10:46:19.228Z,76.95
2018-05-01T10:48:47.199Z,75.43
2018-05-01T10:51:15.061Z,77.12
2018-05-01T10:53:43.033Z,71.45
2018-05-01T10:56:11.715Z,75.55
2018-05-01T10:58:39.686Z,73.18
2018-05-01T11:01:07.552Z,76.62
2018-05-01T11:03:35.517Z,76.18
2018-05-01T11:06:03.485Z,73.62
2018-05-01T11:08:31.457Z,74.22
2018-05-01T11:10:59.245Z,76.32
2018-05-01T11:13:27.963Z,72.22
2018-05-01T11:15:55.875Z,73.12
2018-05-01T11:18:25.279Z,75.00
2018-05-01T11:20:54.674Z,74.10
2018-05-01T11:23:22.543Z,75.18
2018-05-01T11:25:50.515Z,74.37
2018-05-01T11:28:19.912Z,79.78
2018-05-01T11:30:47.782Z,71.30
2018-05-01T11:33:15.747Z,76.97
2018-05-01T11:35:43.615Z,75.55
2018-05-01T11:38:11.649Z,73.68
2018-05-01T11:40:39.479Z,72.20
2018-05-01T11:43:08.135Z,75.68
2018-05-01T11:45:36.004Z,73.03
2018-05-01T11:48:03.822Z,76.05
2018-05-01T11:50:31.735Z,73.82
2018-05-01T11:52:59.605Z,72.95
2018-05-01T11:55:27.669Z,76.85
2018-05-01T11:57:55.537Z,72.90
2018-05-01T12:00:23.567Z,71.25
2018-05-01T12:02:51.476Z,71.70
2018-05-01T12:05:19.339Z,71.97
2018-05-01T12:07:47.209Z,68.28
2018-05-01T12:10:15.077Z,72.35
2018-05-01T12:12:42.936Z,72.53
2018-05-01T12:15:10.909Z,72.62
2018-05-01T12:17:38.771Z,70.62
2018-05-01T12:20:06.639Z,73.18
2018-05-01T12:22:34.511Z,70.80
2018-05-01T12:25:02.377Z,71.50
2018-05-01T12:27:30.237Z,73.05
2018-05-01T12:29:58.256Z,73.30
2018-05-01T12:32:26.173Z,73.50
2018-05-01T12:34:54.047Z,73.65
2018-05-01T12:37:23.447Z,75.78
2018-05-01T12:39:51.312Z,74.85
2018-05-01T12:42:19.383Z,73.53
2018-05-01T12:44:47.244Z,71.95
2018-05-01T12:47:15.076Z,76.87
2018-05-01T12:49:42.857Z,75.35
2018-05-01T12:52:10.744Z,73.12
2018-05-01T12:54:38.815Z,72.37
2018-05-01T12:57:06.780Z,74.15
2018-05-01T12:59:34.750Z,74.77
2018-05-01T13:02:02.511Z,75.37
2018-05-01T13:04:30.320Z,77.53
2018-05-01T13:06:58.168Z,74.07
2018-05-01T13:09:26.696Z,75.95
2018-05-01T13:11:54.533Z,73.00
2018-05-01T13:14:22.458Z,76.90
2018-05-01T13:16:50.229Z,74.87
2018-05-01T13:19:18.174Z,77.95
2018-05-01T13:21:46.059Z,73.68
2018-05-01T13:24:14.028Z,77.32
2018-05-01T13:26:41.890Z,74.00
2018-05-01T13:29:09.759Z,76.03
2018-05-01T13:31:37.578Z,75.25
2018-05-01T13:34:05.375Z,73.22
2018-05-01T13:36:33.177Z,77.10
2018-05-01T13:39:01.837Z,73.32
2018-05-01T13:41:29.645Z,76.32
2018-05-01T13:43:57.573Z,75.22
2018-05-01T13:46:25.501Z,74.30
2018-05-01T13:48:53.343Z,72.07
2018-05-01T13:51:21.151Z,78.28
2018-05-01T13:53:48.914Z,73.60
2018-05-01T13:56:16.733Z,76.15
2018-05-01T13:58:45.392Z,75.45
2018-05-01T14:01:13.222Z,76.25
2018-05-01T14:03:40.996Z,72.82
2018-05-01T14:06:08.785Z,76.35
2018-05-01T14:08:36.569Z,73.25
2018-05-01T14:11:05.234Z,72.97
2018-05-01T14:13:33.000Z,73.60
2018-05-01T14:16:00.841Z,74.40
2018-05-01T14:18:28.625Z,73.32
2018-05-01T14:20:56.448Z,72.95
2018-05-01T14:23:24.206Z,75.05
2018-05-01T14:25:52.000Z,75.87
2018-05-01T14:28:19.875Z,74.72
2018-05-01T14:30:47.694Z,76.47
2018-05-01T14:33:15.499Z,77.62
2018-05-01T14:35:43.280Z,75.18
2018-05-01T14:38:11.117Z,74.57
2018-05-01T14:40:39.030Z,74.12
2018-05-01T14:43:07.563Z,77.40
2018-05-01T14:45:35.429Z,73.53
2018-05-01T14:48:03.321Z,74.60
2018-05-01T14:50:31.194Z,77.50
2018-05-01T14:52:59.110Z,73.65
2018-05-01T14:55:27.073Z,75.22
2018-05-01T14:57:54.866Z,75.60
2018-05-01T15:00:22.754Z,76.05
2018-05-01T15:03:02.487Z,76.10
2018-05-01T15:05:30.297Z,76.37
2018-05-01T15:07:58.943Z,76.35
2018-05-01T15:10:26.717Z,77.12
2018-05-01T15:12:54.678Z,74.72
2018-05-01T15:15:22.506Z,76.00
2018-05-01T15:17:50.611Z,77.45
2018-05-01T15:20:18.477Z,77.60
2018-05-01T15:22:46.347Z,75.62
2018-05-01T15:25:14.211Z,78.10
2018-05-01T15:27:42.079Z,78.00
2018-05-01T15:30:10.055Z,78.65
2018-05-01T15:32:37.981Z,77.87
2018-05-01T15:35:05.882Z,78.72
2018-05-01T15:37:33.726Z,76.45
2018-05-01T15:40:01.529Z,79.47
2018-05-01T15:42:30.137Z,78.85
2018-05-01T15:44:58.059Z,76.65
2018-05-01T15:47:25.931Z,75.70
2018-05-01T15:49:53.798Z,78.15
2018-05-01T15:52:21.663Z,77.10
2018-05-01T15:54:49.528Z,77.87
2018-05-01T15:57:17.394Z,81.50
2018-05-01T15:59:45.258Z,75.47
2018-05-01T16:02:13.329Z,79.62
2018-05-01T16:04:41.194Z,79.50
2018-05-01T16:07:09.265Z,79.15
2018-05-01T16:09:37.132Z,78.35
2018-05-01T16:12:04.978Z,82.65
2018-05-01T16:14:32.761Z,87.53
2018-05-01T16:17:00.661Z,79.40
2018-05-01T16:19:28.698Z,77.53
2018-05-01T16:21:56.978Z,76.93
2018-05-01T16:24:24.946Z,81.30
2018-05-01T16:26:52.765Z,78.20
2018-05-01T16:29:20.530Z,76.78
2018-05-01T16:31:48.307Z,78.72
2018-05-01T16:34:16.308Z,82.68
2018-05-01T16:36:44.171Z,77.22
2018-05-01T16:39:12.017Z,80.47
2018-05-01T16:41:39.904Z,77.32
2018-05-01T16:44:07.857Z,81.93
2018-05-01T16:46:35.710Z,78.43
2018-05-01T16:49:03.498Z,78.30
2018-05-01T16:51:31.345Z,76.55
2018-05-01T16:53:59.133Z,79.45
2018-05-01T16:56:26.900Z,78.50
2018-05-01T16:58:54.761Z,77.97
2018-05-01T17:01:22.734Z,78.30
2018-05-01T17:03:50.714Z,79.93
2018-05-01T17:06:18.512Z,80.12
2018-05-01T17:08:46.293Z,76.95
2018-05-01T17:11:14.195Z,80.62
2018-05-01T17:13:42.269Z,78.22
2018-05-01T17:16:10.134Z,80.97
2018-05-01T17:18:38.105Z,78.82
2018-05-01T17:21:05.968Z,79.68
2018-05-01T17:23:33.836Z,80.12
2018-05-01T17:26:01.700Z,80.35
2018-05-01T17:28:29.547Z,84.53
2018-05-01T17:30:57.430Z,78.10
2018-05-01T17:33:25.298Z,79.12
2018-05-01T17:35:53.984Z,79.55
2018-05-01T17:38:21.853Z,79.20
2018-05-01T17:40:49.743Z,80.03
2018-05-01T17:43:18.402Z,81.87
2018-05-01T17:45:46.236Z,80.00
2018-05-01T17:48:14.137Z,81.57
2018-05-01T17:50:41.956Z,78.32
2018-05-01T17:53:09.721Z,80.80
2018-05-01T17:55:37.582Z,79.45
2018-05-01T17:58:05.400Z,81.87
2018-05-01T18:00:33.256Z,77.82
2018-05-01T18:03:01.094Z,82.10
2018-05-01T18:05:29.060Z,80.78
2018-05-01T18:07:56.961Z,79.62
2018-05-01T18:10:24.827Z,79.50
2018-05-01T18:12:52.658Z,85.22
2018-05-01T18:15:20.557Z,85.78
2018-05-01T18:17:48.530Z,82.97
2018-05-01T18:20:16.395Z,97.57
2018-05-01T18:22:44.365Z,80.45
2018-05-01T18:25:12.338Z,90.50
2018-05-01T18:27:40.297Z,79.85
2018-05-01T18:30:08.164Z,85.05
2018-05-01T18:32:36.032Z,79.72
2018-05-01T18:35:04.001Z,79.65
2018-05-01T18:37:31.863Z,79.90
2018-05-01T18:39:59.730Z,79.05
2018-05-01T18:42:27.600Z,81.10
2018-05-01T18:44:55.408Z,82.10
2018-05-01T18:47:23.240Z,83.90
2018-05-01T18:49:52.015Z,81.57
2018-05-01T18:52:19.879Z,83.43
2018-05-01T18:54:47.751Z,82.45
2018-05-01T18:57:15.717Z,83.68
2018-05-01T18:59:43.686Z,82.40
2018-05-01T19:02:11.552Z,83.78
2018-05-01T19:04:39.621Z,82.35
2018-05-01T19:07:07.690Z,85.38
2018-05-01T19:09:35.556Z,78.25
2018-05-01T19:12:03.485Z,80.95
2018-05-01T19:14:31.502Z,81.60
2018-05-01T19:16:59.361Z,80.22
2018-05-01T19:19:27.431Z,81.90
2018-05-01T19:21:55.400Z,81.32
2018-05-01T19:24:23.222Z,83.25
2018-05-01T19:26:51.131Z,82.97
2018-05-01T19:29:18.998Z,84.03
2018-05-01T19:31:46.868Z,82.70
2018-05-01T19:34:14.738Z,84.82
2018-05-01T19:36:42.699Z,82.97
2018-05-01T19:39:11.486Z,86.97
2018-05-01T19:41:39.457Z,83.65
2018-05-01T19:44:07.427Z,84.82
2018-05-01T19:46:36.054Z,82.18
2018-05-01T19:49:04.693Z,81.85
2018-05-01T19:51:33.665Z,83.35
2018-05-01T19:54:02.642Z,84.47
2018-05-01T19:56:31.896Z,94.33
2018-05-01T19:59:01.479Z,85.75
2018-05-01T20:01:30.524Z,94.33
2018-05-01T20:03:59.160Z,85.45
2018-05-01T20:06:28.014Z,89.05
2018-05-01T20:08:57.065Z,86.75
2018-05-01T20:11:26.705Z,87.45
2018-05-01T20:13:55.610Z,92.27
2018-05-01T20:16:23.766Z,85.18
2018-05-01T20:18:51.788Z,86.57
2018-05-01T20:21:19.958Z,87.15
2018-05-01T20:23:48.603Z,85.07
2018-05-01T20:26:17.265Z,88.03
2018-05-01T20:28:46.489Z,86.68
2018-05-01T20:31:15.106Z,89.45
2018-05-01T20:33:43.079Z,85.90
2018-05-01T20:36:10.944Z,88.47
2018-05-01T20:38:38.911Z,89.07
2018-05-01T20:41:06.776Z,87.68
2018-05-01T20:43:34.748Z,87.22
2018-05-01T20:46:03.126Z,86.35
2018-05-01T20:48:31.094Z,96.32
2018-05-01T20:50:58.925Z,104.10
2018-05-01T20:53:26.829Z,94.10
2018-05-01T20:55:54.654Z,93.30
2018-05-01T20:58:22.558Z,106.50
2018-05-01T21:00:50.627Z,108.95
2018-05-01T21:03:18.493Z,100.53
2018-05-01T21:05:46.462Z,91.12
2018-05-01T21:08:14.330Z,92.07
2018-05-01T21:10:42.193Z,91.00
2018-05-01T21:13:10.064Z,93.93
2018-05-01T21:15:37.928Z,91.15
2018-05-01T21:18:05.795Z,89.72
2018-05-01T21:20:33.659Z,88.47
2018-05-01T21:23:01.525Z,88.80
2018-05-01T21:25:29.402Z,85.78
2018-05-01T21:27:57.435Z,86.12
2018-05-01T21:30:25.331Z,86.90
2018-05-01T21:32:53.195Z,87.43
2018-05-01T21:35:21.058Z,87.20
2018-05-01T21:37:49.032Z,86.60
2018-05-01T21:40:16.998Z,91.15
2018-05-01T21:42:44.817Z,87.62
2018-05-01T21:45:12.734Z,89.15
2018-05-01T21:47:40.558Z,87.30
2018-05-01T21:50:08.466Z,87.30
2018-05-01T21:52:36.331Z,85.65
2018-05-01T21:55:04.299Z,87.05
2018-05-01T21:57:32.272Z,86.87
2018-05-01T22:00:00.236Z,87.15
2018-05-01T22:02:28.205Z,88.65
2018-05-01T22:04:56.277Z,88.43
2018-05-01T22:07:24.246Z,89.37
2018-05-01T22:09:52.220Z,98.40
2018-05-01T22:12:20.083Z,144.57
2018-05-01T22:14:48.044Z,90.75
2018-05-01T22:17:15.913Z,92.80
2018-05-01T22:19:43.780Z,88.68
2018-05-01T22:22:11.813Z,92.18
2018-05-01T22:24:39.713Z,90.05
2018-05-01T22:27:07.585Z,92.20
2018-05-01T22:29:35.605Z,89.18
2018-05-01T22:32:03.457Z,89.20
2018-05-01T22:34:31.280Z,89.10
2018-05-01T22:36:59.113Z,91.45
2018-05-01T22:39:27.017Z,90.43
2018-05-01T22:41:54.982Z,90.93
2018-05-01T22:44:22.847Z,93.03
2018-05-01T22:46:50.717Z,88.25
2018-05-01T22:49:18.579Z,92.10
2018-05-01T22:51:46.445Z,92.18
2018-05-01T22:54:14.316Z,91.22
2018-05-01T22:56:42.285Z,89.32
2018-05-01T22:59:10.150Z,91.22
2018-05-01T23:01:38.120Z,92.03
2018-05-01T23:04:06.084Z,91.87
2018-05-01T23:06:34.154Z,90.12
2018-05-01T23:09:02.027Z,90.35
2018-05-01T23:11:29.892Z,88.93
2018-05-01T23:13:57.753Z,87.15
2018-05-01T23:16:25.621Z,90.12
2018-05-01T23:18:53.486Z,88.62
2018-05-01T23:21:21.353Z,91.40
2018-05-01T23:23:49.423Z,90.78
2018-05-01T23:26:17.287Z,93.43
2018-05-01T23:28:45.261Z,90.38
2018-05-01T23:31:13.225Z,94.37
2018-05-01T23:33:41.092Z,90.30
2018-05-01T23:36:09.165Z,91.00
2018-05-01T23:38:37.032Z,90.75
2018-05-01T23:41:04.899Z,92.88
2018-05-01T23:43:32.764Z,89.18
2018-05-01T23:48:34.742Z,92.05
2018-05-01T23:51:02.609Z,92.32
2018-05-01T23:53:30.472Z,91.95
2018-05-01T23:55:58.444Z,91.25
2018-05-01T23:58:26.308Z,91.47
